sensor_id;sensor_type;location;lat;lon;timestamp;pressure;altitude;pressure_sealevel;temperature;humidity
60228;BME280;46091;46.512;6.626;2023-04-09T00:01:02;97249.63;;;12.21;47.00
60228;BME280;46091;46.512;6.626;2023-04-09T00:03:05;97240.28;;;12.26;46.99
60228;BME280;46091;46.512;6.626;2023-04-09T00:05:08;97242.16;;;12.32;46.86
60228;BME280;46091;46.512;6.626;2023-04-09T00:07:11;97248.91;;;12.34;46.91
60228;BME280;46091;46.512;6.626;2023-04-09T00:09:14;97246.06;;;12.36;47.12
60228;BME280;46091;46.512;6.626;2023-04-09T00:11:17;97242.63;;;12.42;46.79
60228;BME280;46091;46.512;6.626;2023-04-09T00:13:21;97249.22;;;12.46;46.92
60228;BME280;46091;46.512;6.626;2023-04-09T00:15:39;97232.91;;;12.49;47.06
60228;BME280;46091;46.512;6.626;2023-04-09T00:17:42;97230.25;;;12.49;47.08
60228;BME280;46091;46.512;6.626;2023-04-09T00:19:45;97242.91;;;12.47;46.70
60228;BME280;46091;46.512;6.626;2023-04-09T00:21:47;97239.22;;;12.48;46.96
60228;BME280;46091;46.512;6.626;2023-04-09T00:23:50;97244.34;;;12.49;46.75
60228;BME280;46091;46.512;6.626;2023-04-09T00:25:53;97246.97;;;12.49;47.13
60228;BME280;46091;46.512;6.626;2023-04-09T00:27:56;97238.00;;;12.50;46.86
60228;BME280;46091;46.512;6.626;2023-04-09T00:30:01;97245.78;;;12.52;47.05
60228;BME280;46091;46.512;6.626;2023-04-09T00:32:04;97238.59;;;12.46;47.20
60228;BME280;46091;46.512;6.626;2023-04-09T00:34:07;97234.94;;;12.47;47.38
60228;BME280;46091;46.512;6.626;2023-04-09T00:36:10;97234.94;;;12.47;47.27
60228;BME280;46091;46.512;6.626;2023-04-09T00:38:12;97233.31;;;12.46;47.26
60228;BME280;46091;46.512;6.626;2023-04-09T00:40:15;97236.31;;;12.43;47.31
60228;BME280;46091;46.512;6.626;2023-04-09T00:42:19;97235.06;;;12.39;47.42
60228;BME280;46091;46.512;6.626;2023-04-09T00:44:22;97237.09;;;12.37;47.46
60228;BME280;46091;46.512;6.626;2023-04-09T00:46:26;97234.81;;;12.34;47.54
60228;BME280;46091;46.512;6.626;2023-04-09T00:48:29;97232.38;;;12.32;47.47
60228;BME280;46091;46.512;6.626;2023-04-09T00:50:32;97231.34;;;12.33;47.36
60228;BME280;46091;46.512;6.626;2023-04-09T00:52:35;97232.16;;;12.34;47.74
60228;BME280;46091;46.512;6.626;2023-04-09T00:54:38;97239.13;;;12.35;47.57
60228;BME280;46091;46.512;6.626;2023-04-09T00:56:41;97234.19;;;12.32;47.50
60228;BME280;46091;46.512;6.626;2023-04-09T00:58:44;97237.06;;;12.30;47.63
60228;BME280;46091;46.512;6.626;2023-04-09T01:00:47;97230.72;;;12.31;47.81
60228;BME280;46091;46.512;6.626;2023-04-09T01:02:51;97237.06;;;12.30;47.72
60228;BME280;46091;46.512;6.626;2023-04-09T01:04:54;97227.66;;;12.28;47.74
60228;BME280;46091;46.512;6.626;2023-04-09T01:07:01;97234.78;;;12.27;48.07
60228;BME280;46091;46.512;6.626;2023-04-09T01:09:12;97231.53;;;12.25;48.02
60228;BME280;46091;46.512;6.626;2023-04-09T01:11:25;97232.06;;;12.20;47.89
60228;BME280;46091;46.512;6.626;2023-04-09T01:13:38;97242.31;;;12.23;48.29
60228;BME280;46091;46.512;6.626;2023-04-09T01:15:47;97229.06;;;12.23;47.95
60228;BME280;46091;46.512;6.626;2023-04-09T01:18:00;97225.75;;;12.21;48.34
60228;BME280;46091;46.512;6.626;2023-04-09T01:20:10;97227.41;;;12.22;48.19
60228;BME280;46091;46.512;6.626;2023-04-09T01:22:27;97223.75;;;12.23;48.25
60228;BME280;46091;46.512;6.626;2023-04-09T01:24:39;97221.13;;;12.23;48.12
60228;BME280;46091;46.512;6.626;2023-04-09T01:26:54;97223.13;;;12.21;48.19
60228;BME280;46091;46.512;6.626;2023-04-09T01:29:02;97222.06;;;12.16;48.24
60228;BME280;46091;46.512;6.626;2023-04-09T01:31:09;97224.72;;;12.16;48.22
60228;BME280;46091;46.512;6.626;2023-04-09T01:33:15;97225.72;;;12.15;48.45
60228;BME280;46091;46.512;6.626;2023-04-09T01:35:19;97225.13;;;12.13;48.51
60228;BME280;46091;46.512;6.626;2023-04-09T01:37:23;97218.53;;;12.09;48.36
60228;BME280;46091;46.512;6.626;2023-04-09T01:39:27;97224.66;;;12.09;48.32
60228;BME280;46091;46.512;6.626;2023-04-09T01:41:31;97222.63;;;12.11;48.65
60228;BME280;46091;46.512;6.626;2023-04-09T01:43:36;97220.63;;;12.13;48.77
60228;BME280;46091;46.512;6.626;2023-04-09T01:45:41;97220.63;;;12.13;48.36
60228;BME280;46091;46.512;6.626;2023-04-09T01:47:45;97230.22;;;12.14;48.48
60228;BME280;46091;46.512;6.626;2023-04-09T01:49:49;97231.22;;;12.13;48.69
60228;BME280;46091;46.512;6.626;2023-04-09T01:51:53;97231.97;;;12.07;48.88
60228;BME280;46091;46.512;6.626;2023-04-09T01:53:55;97234.44;;;12.09;48.90
60228;BME280;46091;46.512;6.626;2023-04-09T01:55:59;97230.97;;;12.08;48.89
60228;BME280;46091;46.512;6.626;2023-04-09T01:58:02;97229.94;;;12.09;48.67
60228;BME280;46091;46.512;6.626;2023-04-09T02:00:06;97231.78;;;12.09;48.71
60228;BME280;46091;46.512;6.626;2023-04-09T02:02:16;97235.84;;;12.05;48.67
60228;BME280;46091;46.512;6.626;2023-04-09T02:04:23;97238.06;;;12.01;49.10
60228;BME280;46091;46.512;6.626;2023-04-09T02:06:33;97235.16;;;11.96;49.09
60228;BME280;46091;46.512;6.626;2023-04-09T02:08:42;97247.78;;;11.94;49.08
60228;BME280;46091;46.512;6.626;2023-04-09T02:10:49;97251.03;;;11.96;48.92
60228;BME280;46091;46.512;6.626;2023-04-09T02:12:54;97248.41;;;11.96;49.16
60228;BME280;46091;46.512;6.626;2023-04-09T02:14:59;97241.47;;;11.95;49.21
60228;BME280;46091;46.512;6.626;2023-04-09T02:17:03;97235.97;;;11.97;49.20
60228;BME280;46091;46.512;6.626;2023-04-09T02:19:07;97240.44;;;11.96;49.09
60228;BME280;46091;46.512;6.626;2023-04-09T02:21:10;97234.94;;;11.98;49.36
60228;BME280;46091;46.512;6.626;2023-04-09T02:23:14;97239.25;;;11.99;49.21
60228;BME280;46091;46.512;6.626;2023-04-09T02:25:17;97249.66;;;12.00;48.98
60228;BME280;46091;46.512;6.626;2023-04-09T02:27:20;97241.69;;;12.00;49.22
60228;BME280;46091;46.512;6.626;2023-04-09T02:29:23;97247.00;;;12.00;49.31
60228;BME280;46091;46.512;6.626;2023-04-09T02:31:26;97240.06;;;11.99;49.34
60228;BME280;46091;46.512;6.626;2023-04-09T02:33:29;97231.06;;;11.93;49.49
60228;BME280;46091;46.512;6.626;2023-04-09T02:35:33;97243.28;;;11.94;49.64
60228;BME280;46091;46.512;6.626;2023-04-09T02:37:36;97236.78;;;11.97;49.24
60228;BME280;46091;46.512;6.626;2023-04-09T02:39:39;97234.34;;;11.95;49.43
60228;BME280;46091;46.512;6.626;2023-04-09T02:41:41;97230.25;;;11.93;49.33
60228;BME280;46091;46.512;6.626;2023-04-09T02:43:44;97235.53;;;11.93;49.50
60228;BME280;46091;46.512;6.626;2023-04-09T02:45:47;97242.88;;;11.91;49.47
60228;BME280;46091;46.512;6.626;2023-04-09T02:47:50;97237.56;;;11.91;49.70
60228;BME280;46091;46.512;6.626;2023-04-09T02:49:53;97233.91;;;11.92;49.64
60228;BME280;46091;46.512;6.626;2023-04-09T02:51:57;97230.25;;;11.93;49.51
60228;BME280;46091;46.512;6.626;2023-04-09T02:54:00;97241.66;;;11.93;49.62
60228;BME280;46091;46.512;6.626;2023-04-09T02:56:03;97242.47;;;11.94;49.52
60228;BME280;46091;46.512;6.626;2023-04-09T02:58:06;97240.41;;;11.89;49.88
60228;BME280;46091;46.512;6.626;2023-04-09T03:00:11;97244.69;;;11.90;49.55
60228;BME280;46091;46.512;6.626;2023-04-09T03:02:14;97239.56;;;11.89;49.60
60228;BME280;46091;46.512;6.626;2023-04-09T03:04:17;97242.88;;;11.91;49.82
60228;BME280;46091;46.512;6.626;2023-04-09T03:06:20;97246.94;;;11.93;49.49
60228;BME280;46091;46.512;6.626;2023-04-09T03:08:24;97237.75;;;11.89;49.85
60228;BME280;46091;46.512;6.626;2023-04-09T03:10:27;97236.47;;;11.85;49.75
60228;BME280;46091;46.512;6.626;2023-04-09T03:12:30;97243.59;;;11.85;50.15
60228;BME280;46091;46.512;6.626;2023-04-09T03:14:32;97236.88;;;11.82;49.68
60228;BME280;46091;46.512;6.626;2023-04-09T03:16:35;97231.09;;;11.79;49.72
60228;BME280;46091;46.512;6.626;2023-04-09T03:18:38;97233.75;;;11.79;49.76
60228;BME280;46091;46.512;6.626;2023-04-09T03:20:41;97225.94;;;11.71;50.11
60228;BME280;46091;46.512;6.626;2023-04-09T03:22:44;97226.66;;;11.64;50.19
60228;BME280;46091;46.512;6.626;2023-04-09T03:24:48;97225.63;;;11.59;50.40
60228;BME280;46091;46.512;6.626;2023-04-09T03:26:51;97227.06;;;11.61;50.40
60228;BME280;46091;46.512;6.626;2023-04-09T03:28:53;97225.84;;;11.64;50.01
60228;BME280;46091;46.512;6.626;2023-04-09T03:30:57;97227.69;;;11.63;50.30
60228;BME280;46091;46.512;6.626;2023-04-09T03:32:59;97228.97;;;11.68;50.07
60228;BME280;46091;46.512;6.626;2023-04-09T03:35:02;97229.97;;;11.66;50.12
60228;BME280;46091;46.512;6.626;2023-04-09T03:37:05;97230.78;;;11.67;50.32
60228;BME280;46091;46.512;6.626;2023-04-09T03:39:08;97230.59;;;11.69;50.23
60228;BME280;46091;46.512;6.626;2023-04-09T03:41:12;97229.19;;;11.73;50.50
60228;BME280;46091;46.512;6.626;2023-04-09T03:43:15;97228.38;;;11.72;50.40
60228;BME280;46091;46.512;6.626;2023-04-09T03:45:18;97222.91;;;11.74;50.36
60228;BME280;46091;46.512;6.626;2023-04-09T03:47:21;97226.38;;;11.74;50.40
60228;BME280;46091;46.512;6.626;2023-04-09T03:49:24;97220.44;;;11.72;50.15
60228;BME280;46091;46.512;6.626;2023-04-09T03:51:26;97220.25;;;11.74;50.12
60228;BME280;46091;46.512;6.626;2023-04-09T03:53:29;97218.59;;;11.73;50.47
60228;BME280;46091;46.512;6.626;2023-04-09T03:55:32;97223.47;;;11.69;50.37
60228;BME280;46091;46.512;6.626;2023-04-09T03:57:36;97219.38;;;11.66;50.54
60228;BME280;46091;46.512;6.626;2023-04-09T03:59:39;97226.13;;;11.69;50.33
60228;BME280;46091;46.512;6.626;2023-04-09T04:01:42;97226.13;;;11.69;50.45
60228;BME280;46091;46.512;6.626;2023-04-09T04:03:45;97226.56;;;11.73;50.47
60228;BME280;46091;46.512;6.626;2023-04-09T04:05:48;97223.28;;;11.71;50.26
60228;BME280;46091;46.512;6.626;2023-04-09T04:07:51;97214.53;;;11.70;50.14
60228;BME280;46091;46.512;6.626;2023-04-09T04:09:54;97220.00;;;11.69;50.34
60228;BME280;46091;46.512;6.626;2023-04-09T04:11:57;97226.31;;;11.68;50.51
60228;BME280;46091;46.512;6.626;2023-04-09T04:14:01;97224.22;;;11.63;50.25
60228;BME280;46091;46.512;6.626;2023-04-09T04:16:06;97224.22;;;11.63;50.46
60228;BME280;46091;46.512;6.626;2023-04-09T04:18:09;97235.91;;;11.69;50.44
60228;BME280;46091;46.512;6.626;2023-04-09T04:20:12;97236.13;;;11.74;50.44
60228;BME280;46091;46.512;6.626;2023-04-09T04:22:15;97229.19;;;11.73;50.24
60228;BME280;46091;46.512;6.626;2023-04-09T04:24:18;97227.56;;;11.72;50.25
60228;BME280;46091;46.512;6.626;2023-04-09T04:26:20;97236.13;;;11.74;50.22
60228;BME280;46091;46.512;6.626;2023-04-09T04:28:23;97238.78;;;11.74;50.11
60228;BME280;46091;46.512;6.626;2023-04-09T04:30:27;97243.03;;;11.68;50.25
60228;BME280;46091;46.512;6.626;2023-04-09T04:32:30;97240.56;;;11.66;50.32
60228;BME280;46091;46.512;6.626;2023-04-09T04:34:33;97240.56;;;11.66;50.47
60228;BME280;46091;46.512;6.626;2023-04-09T04:36:36;97241.38;;;11.67;50.35
60228;BME280;46091;46.512;6.626;2023-04-09T04:38:39;97243.84;;;11.69;50.22
60228;BME280;46091;46.512;6.626;2023-04-09T04:40:42;97238.56;;;11.69;50.32
60228;BME280;46091;46.512;6.626;2023-04-09T04:42:45;97236.09;;;11.67;50.54
60228;BME280;46091;46.512;6.626;2023-04-09T04:44:48;97231.63;;;11.68;50.47
60228;BME280;46091;46.512;6.626;2023-04-09T04:46:52;97241.56;;;11.65;50.27
60228;BME280;46091;46.512;6.626;2023-04-09T04:48:55;97245.59;;;11.61;50.31
60228;BME280;46091;46.512;6.626;2023-04-09T04:51:00;97249.44;;;11.59;50.45
60228;BME280;46091;46.512;6.626;2023-04-09T04:53:03;97250.19;;;11.53;50.41
60228;BME280;46091;46.512;6.626;2023-04-09T04:55:07;97253.41;;;11.48;50.74
60228;BME280;46091;46.512;6.626;2023-04-09T04:57:13;97255.03;;;11.49;50.75
60228;BME280;46091;46.512;6.626;2023-04-09T04:59:15;97253.66;;;11.53;50.57
60228;BME280;46091;46.512;6.626;2023-04-09T05:01:18;97261.41;;;11.55;50.68
60228;BME280;46091;46.512;6.626;2023-04-09T05:03:22;97263.00;;;11.49;50.74
60228;BME280;46091;46.512;6.626;2023-04-09T05:05:28;97261.97;;;11.50;50.95
60228;BME280;46091;46.512;6.626;2023-04-09T05:07:32;97266.84;;;11.47;50.73
60228;BME280;46091;46.512;6.626;2023-04-09T05:09:35;97269.28;;;11.48;50.61
60228;BME280;46091;46.512;6.626;2023-04-09T05:11:38;97267.28;;;11.50;50.61
60228;BME280;46091;46.512;6.626;2023-04-09T05:13:41;97274.59;;;11.48;50.92
60228;BME280;46091;46.512;6.626;2023-04-09T05:15:43;97268.03;;;11.44;51.01
60228;BME280;46091;46.512;6.626;2023-04-09T05:17:46;97272.31;;;11.45;50.91
60228;BME280;46091;46.512;6.626;2023-04-09T05:19:51;97270.13;;;11.49;50.78
60228;BME280;46091;46.512;6.626;2023-04-09T05:21:56;97265.63;;;11.49;50.73
60228;BME280;46091;46.512;6.626;2023-04-09T05:23:59;97276.66;;;11.53;50.86
60228;BME280;46091;46.512;6.626;2023-04-09T05:26:02;97277.47;;;11.53;50.95
60228;BME280;46091;46.512;6.626;2023-04-09T05:28:05;97272.19;;;11.53;50.71
60228;BME280;46091;46.512;6.626;2023-04-09T05:30:08;97284.41;;;11.54;50.54
60228;BME280;46091;46.512;6.626;2023-04-09T05:32:11;97284.78;;;11.51;50.85
60228;BME280;46091;46.512;6.626;2023-04-09T05:34:14;97278.25;;;11.47;50.80
60228;BME280;46091;46.512;6.626;2023-04-09T05:36:18;97291.09;;;11.50;50.87
60228;BME280;46091;46.512;6.626;2023-04-09T05:38:21;97287.81;;;11.48;50.90
60228;BME280;46091;46.512;6.626;2023-04-09T05:40:24;97281.91;;;11.46;51.14
60228;BME280;46091;46.512;6.626;2023-04-09T05:42:27;97288.22;;;11.45;50.90
60228;BME280;46091;46.512;6.626;2023-04-09T05:44:30;97286.72;;;11.43;51.07
60228;BME280;46091;46.512;6.626;2023-04-09T05:46:32;97281.44;;;11.43;51.14
60228;BME280;46091;46.512;6.626;2023-04-09T05:48:35;97284.91;;;11.43;50.79
60228;BME280;46091;46.512;6.626;2023-04-09T05:50:38;97283.91;;;11.44;51.09
60228;BME280;46091;46.512;6.626;2023-04-09T05:52:56;97286.56;;;11.44;50.85
60228;BME280;46091;46.512;6.626;2023-04-09T05:54:59;97287.09;;;11.40;50.92
60228;BME280;46091;46.512;6.626;2023-04-09T05:57:02;97292.03;;;11.43;51.27
60228;BME280;46091;46.512;6.626;2023-04-09T05:59:05;97291.69;;;11.46;51.12
60228;BME280;46091;46.512;6.626;2023-04-09T06:01:08;97295.38;;;11.51;50.81
60228;BME280;46091;46.512;6.626;2023-04-09T06:03:11;97294.56;;;11.51;51.21
60228;BME280;46091;46.512;6.626;2023-04-09T06:05:15;97290.72;;;11.53;50.85
60228;BME280;46091;46.512;6.626;2023-04-09T06:07:18;97296.69;;;11.55;51.05
60228;BME280;46091;46.512;6.626;2023-04-09T06:09:22;97299.13;;;11.57;51.25
60228;BME280;46091;46.512;6.626;2023-04-09T06:11:24;97300.00;;;11.64;50.97
60228;BME280;46091;46.512;6.626;2023-04-09T06:13:27;97304.94;;;11.67;50.96
60228;BME280;46091;46.512;6.626;2023-04-09T06:15:30;97300.63;;;11.66;51.17
60228;BME280;46091;46.512;6.626;2023-04-09T06:17:33;97308.56;;;11.66;50.94
60228;BME280;46091;46.512;6.626;2023-04-09T06:19:35;97309.03;;;11.70;50.96
60228;BME280;46091;46.512;6.626;2023-04-09T06:21:38;97310.69;;;11.71;50.89
60228;BME280;46091;46.512;6.626;2023-04-09T06:23:42;97317.22;;;11.75;50.98
60228;BME280;46091;46.512;6.626;2023-04-09T06:25:46;97315.22;;;11.77;50.81
60228;BME280;46091;46.512;6.626;2023-04-09T06:27:48;97324.16;;;11.76;51.19
60228;BME280;46091;46.512;6.626;2023-04-09T06:29:52;97317.22;;;11.75;51.23
60228;BME280;46091;46.512;6.626;2023-04-09T06:31:55;97320.19;;;11.80;51.09
60228;BME280;46091;46.512;6.626;2023-04-09T06:33:58;97316.53;;;11.81;50.80
60228;BME280;46091;46.512;6.626;2023-04-09T06:36:01;97322.66;;;11.81;51.06
60228;BME280;46091;46.512;6.626;2023-04-09T06:38:03;97320.44;;;11.85;51.07
60228;BME280;46091;46.512;6.626;2023-04-09T06:40:08;97322.88;;;11.86;51.24
60228;BME280;46091;46.512;6.626;2023-04-09T06:42:12;97326.75;;;11.84;51.17
60228;BME280;46091;46.512;6.626;2023-04-09T06:44:15;97325.53;;;11.86;51.18
60228;BME280;46091;46.512;6.626;2023-04-09T06:46:17;97323.53;;;11.88;51.23
60228;BME280;46091;46.512;6.626;2023-04-09T06:48:21;97322.34;;;11.91;51.24
60228;BME280;46091;46.512;6.626;2023-04-09T06:50:24;97321.97;;;11.94;50.92
60228;BME280;46091;46.512;6.626;2023-04-09T06:52:27;97325.03;;;11.98;50.92
60228;BME280;46091;46.512;6.626;2023-04-09T06:54:31;97321.38;;;11.99;50.88
60228;BME280;46091;46.512;6.626;2023-04-09T06:56:34;97323.41;;;11.97;50.97
60228;BME280;46091;46.512;6.626;2023-04-09T06:58:38;97324.34;;;11.89;51.12
60228;BME280;46091;46.512;6.626;2023-04-09T07:00:41;97322.53;;;11.89;51.43
60228;BME280;46091;46.512;6.626;2023-04-09T07:02:44;97326.25;;;11.95;51.06
60228;BME280;46091;46.512;6.626;2023-04-09T07:04:47;97324.22;;;11.97;50.99
60228;BME280;46091;46.512;6.626;2023-04-09T07:06:50;97319.56;;;11.99;51.31
60228;BME280;46091;46.512;6.626;2023-04-09T07:08:55;97318.72;;;11.99;51.27
60228;BME280;46091;46.512;6.626;2023-04-09T07:10:58;97321.03;;;12.02;51.21
60228;BME280;46091;46.512;6.626;2023-04-09T07:13:00;97326.69;;;11.99;51.07
60228;BME280;46091;46.512;6.626;2023-04-09T07:15:06;97327.06;;;11.95;51.34
60228;BME280;46091;46.512;6.626;2023-04-09T07:17:09;97323.22;;;11.98;51.31
60228;BME280;46091;46.512;6.626;2023-04-09T07:19:12;97323.34;;;11.90;51.17
60228;BME280;46091;46.512;6.626;2023-04-09T07:21:15;97318.69;;;11.92;51.12
60228;BME280;46091;46.512;6.626;2023-04-09T07:23:18;97319.94;;;11.96;51.30
60228;BME280;46091;46.512;6.626;2023-04-09T07:25:21;97329.72;;;11.95;51.15
60228;BME280;46091;46.512;6.626;2023-04-09T07:27:25;97332.56;;;11.94;51.49
60228;BME280;46091;46.512;6.626;2023-04-09T07:29:29;97333.56;;;11.93;50.90
60228;BME280;46091;46.512;6.626;2023-04-09T07:31:33;97331.75;;;11.93;51.47
60228;BME280;46091;46.512;6.626;2023-04-09T07:33:36;97326.16;;;11.88;51.55
60228;BME280;46091;46.512;6.626;2023-04-09T07:35:39;97326.34;;;11.87;51.47
60228;BME280;46091;46.512;6.626;2023-04-09T07:37:42;97334.94;;;11.89;51.41
60228;BME280;46091;46.512;6.626;2023-04-09T07:39:48;97338.97;;;11.85;51.38
60228;BME280;46091;46.512;6.626;2023-04-09T07:41:51;97350.41;;;11.85;51.66
60228;BME280;46091;46.512;6.626;2023-04-09T07:43:54;97347.13;;;11.83;51.50
60228;BME280;46091;46.512;6.626;2023-04-09T07:45:57;97345.91;;;11.86;51.48
60228;BME280;46091;46.512;6.626;2023-04-09T07:48:01;97339.59;;;11.87;51.64
60228;BME280;46091;46.512;6.626;2023-04-09T07:50:05;97343.25;;;11.86;51.67
60228;BME280;46091;46.512;6.626;2023-04-09T07:52:08;97340.22;;;11.89;51.67
60228;BME280;46091;46.512;6.626;2023-04-09T07:54:11;97341.50;;;11.93;51.59
60228;BME280;46091;46.512;6.626;2023-04-09T07:56:14;97349.91;;;11.97;51.65
60228;BME280;46091;46.512;6.626;2023-04-09T07:58:16;97336.47;;;11.98;51.60
60228;BME280;46091;46.512;6.626;2023-04-09T08:00:19;97338.28;;;11.98;51.46
60228;BME280;46091;46.512;6.626;2023-04-09T08:02:22;97336.28;;;12.00;51.63
60228;BME280;46091;46.512;6.626;2023-04-09T08:04:27;97337.97;;;12.07;51.54
60228;BME280;46091;46.512;6.626;2023-04-09T08:06:30;97340.09;;;12.12;51.74
60228;BME280;46091;46.512;6.626;2023-04-09T08:08:32;97340.91;;;12.12;51.72
60228;BME280;46091;46.512;6.626;2023-04-09T08:10:36;97351.13;;;12.15;51.78
60228;BME280;46091;46.512;6.626;2023-04-09T08:12:38;97344.81;;;12.16;51.72
60228;BME280;46091;46.512;6.626;2023-04-09T08:14:41;97352.75;;;12.16;51.75
60228;BME280;46091;46.512;6.626;2023-04-09T08:16:46;97348.28;;;12.17;51.49
60228;BME280;46091;46.512;6.626;2023-04-09T08:18:49;97355.22;;;12.18;51.53
60228;BME280;46091;46.512;6.626;2023-04-09T08:20:54;97352.38;;;12.19;51.63
60228;BME280;46091;46.512;6.626;2023-04-09T08:22:57;97355.28;;;12.24;51.92
60228;BME280;46091;46.512;6.626;2023-04-09T08:24:59;97361.03;;;12.28;51.61
60228;BME280;46091;46.512;6.626;2023-04-09T08:27:03;97360.25;;;12.34;51.56
60228;BME280;46091;46.512;6.626;2023-04-09T08:29:07;97365.38;;;12.36;51.96
60228;BME280;46091;46.512;6.626;2023-04-09T08:31:10;97368.41;;;12.33;52.01
60228;BME280;46091;46.512;6.626;2023-04-09T08:33:13;97366.75;;;12.32;51.87
60228;BME280;46091;46.512;6.626;2023-04-09T08:35:16;97365.13;;;12.31;52.19
60228;BME280;46091;46.512;6.626;2023-04-09T08:37:20;97364.72;;;12.34;52.15
60228;BME280;46091;46.512;6.626;2023-04-09T08:39:22;97368.03;;;12.36;52.08
60228;BME280;46091;46.512;6.626;2023-04-09T08:41:27;97367.03;;;12.37;51.95
60228;BME280;46091;46.512;6.626;2023-04-09T08:43:31;97366.44;;;12.41;51.78
60228;BME280;46091;46.512;6.626;2023-04-09T08:45:54;97359.94;;;12.44;51.81
60228;BME280;46091;46.512;6.626;2023-04-09T08:47:58;97362.38;;;12.45;52.16
60228;BME280;46091;46.512;6.626;2023-04-09T08:50:04;97364.41;;;12.43;51.82
60228;BME280;46091;46.512;6.626;2023-04-09T08:52:07;97365.63;;;12.41;52.08
60228;BME280;46091;46.512;6.626;2023-04-09T08:54:13;97368.91;;;12.43;52.09
60228;BME280;46091;46.512;6.626;2023-04-09T08:56:16;97361.97;;;12.42;52.12
60228;BME280;46091;46.512;6.626;2023-04-09T08:58:19;97366.25;;;12.43;52.28
60228;BME280;46091;46.512;6.626;2023-04-09T09:00:22;97368.09;;;12.42;52.12
60228;BME280;46091;46.512;6.626;2023-04-09T09:02:25;97375.66;;;12.45;52.06
60228;BME280;46091;46.512;6.626;2023-04-09T09:04:42;97375.09;;;12.50;52.36
60228;BME280;46091;46.512;6.626;2023-04-09T09:06:46;97383.03;;;12.50;52.31
60228;BME280;46091;46.512;6.626;2023-04-09T09:09:03;97379.56;;;12.49;52.22
60228;BME280;46091;46.512;6.626;2023-04-09T09:11:08;97385.13;;;12.54;52.43
60228;BME280;46091;46.512;6.626;2023-04-09T09:13:21;97375.59;;;12.60;52.38
60228;BME280;46091;46.512;6.626;2023-04-09T09:15:26;97380.28;;;12.58;52.41
60228;BME280;46091;46.512;6.626;2023-04-09T09:17:29;97377.63;;;12.58;52.46
60228;BME280;46091;46.512;6.626;2023-04-09T09:19:32;97380.06;;;12.60;52.49
60228;BME280;46091;46.512;6.626;2023-04-09T09:21:36;97377.03;;;12.63;52.45
60228;BME280;46091;46.512;6.626;2023-04-09T09:23:39;97375.63;;;12.67;52.29
60228;BME280;46091;46.512;6.626;2023-04-09T09:25:42;97379.75;;;12.69;52.30
60228;BME280;46091;46.512;6.626;2023-04-09T09:27:49;97368.56;;;12.74;52.20
60228;BME280;46091;46.512;6.626;2023-04-09T09:29:52;97374.88;;;12.73;52.20
60228;BME280;46091;46.512;6.626;2023-04-09T09:31:55;97378.34;;;12.73;52.41
60228;BME280;46091;46.512;6.626;2023-04-09T09:34:07;97374.88;;;12.73;52.59
60228;BME280;46091;46.512;6.626;2023-04-09T09:36:10;97377.31;;;12.74;52.16
60228;BME280;46091;46.512;6.626;2023-04-09T09:38:13;97365.06;;;12.73;52.54
60228;BME280;46091;46.512;6.626;2023-04-09T09:40:26;97360.19;;;12.77;52.47
60228;BME280;46091;46.512;6.626;2023-04-09T09:42:29;97361.84;;;12.78;52.29
60228;BME280;46091;46.512;6.626;2023-04-09T09:44:33;97363.31;;;12.80;52.08
60228;BME280;46091;46.512;6.626;2023-04-09T09:46:38;97358.63;;;12.82;52.27
60228;BME280;46091;46.512;6.626;2023-04-09T09:48:42;97356.97;;;12.81;52.33
60228;BME280;46091;46.512;6.626;2023-04-09T09:50:47;97350.66;;;12.82;52.09
60228;BME280;46091;46.512;6.626;2023-04-09T09:52:58;97351.09;;;12.86;51.98
60228;BME280;46091;46.512;6.626;2023-04-09T09:55:04;97358.03;;;12.87;51.83
60228;BME280;46091;46.512;6.626;2023-04-09T09:57:09;97351.69;;;12.88;52.00
60228;BME280;46091;46.512;6.626;2023-04-09T09:59:16;97351.91;;;12.87;52.05
60228;BME280;46091;46.512;6.626;2023-04-09T10:01:25;97351.91;;;12.87;52.17
60228;BME280;46091;46.512;6.626;2023-04-09T10:03:31;97347.03;;;12.90;51.82
60228;BME280;46091;46.512;6.626;2023-04-09T10:05:39;97348.50;;;12.93;51.61
60228;BME280;46091;46.512;6.626;2023-04-09T10:07:43;97347.06;;;12.97;51.65
60228;BME280;46091;46.512;6.626;2023-04-09T10:09:49;97341.56;;;12.98;51.52
60228;BME280;46091;46.512;6.626;2023-04-09T10:11:53;97340.56;;;12.99;51.80
60228;BME280;46091;46.512;6.626;2023-04-09T10:13:57;97339.53;;;13.00;51.56
60228;BME280;46091;46.512;6.626;2023-04-09T10:16:00;97338.72;;;13.00;51.50
60228;BME280;46091;46.512;6.626;2023-04-09T10:18:04;97333.41;;;13.00;51.66
60228;BME280;46091;46.512;6.626;2023-04-09T10:20:11;97325.66;;;12.98;51.45
60228;BME280;46091;46.512;6.626;2023-04-09T10:22:20;97330.94;;;12.98;51.49
60228;BME280;46091;46.512;6.626;2023-04-09T10:24:24;97332.59;;;12.99;51.67
60228;BME280;46091;46.512;6.626;2023-04-09T10:26:27;97335.84;;;13.01;51.28
60228;BME280;46091;46.512;6.626;2023-04-09T10:28:31;97342.00;;;13.02;51.27
60228;BME280;46091;46.512;6.626;2023-04-09T10:30:35;97336.50;;;13.03;51.38
60228;BME280;46091;46.512;6.626;2023-04-09T10:32:38;97335.28;;;13.06;51.30
60228;BME280;46091;46.512;6.626;2023-04-09T10:34:42;97330.41;;;13.09;51.09
60228;BME280;46091;46.512;6.626;2023-04-09T10:36:49;97335.31;;;13.12;50.95
60228;BME280;46091;46.512;6.626;2023-04-09T10:38:54;97329.84;;;13.14;51.08
60228;BME280;46091;46.512;6.626;2023-04-09T10:40:57;97332.09;;;13.17;50.66
60228;BME280;46091;46.512;6.626;2023-04-09T10:43:00;97333.72;;;13.18;50.81
60228;BME280;46091;46.512;6.626;2023-04-09T10:45:10;97331.06;;;13.18;50.81
60228;BME280;46091;46.512;6.626;2023-04-09T10:47:30;97328.03;;;13.21;50.59
60228;BME280;46091;46.512;6.626;2023-04-09T10:49:37;97329.47;;;13.24;50.34
60228;BME280;46091;46.512;6.626;2023-04-09T10:51:47;97327.28;;;13.27;50.44
60228;BME280;46091;46.512;6.626;2023-04-09T10:53:50;97322.19;;;13.32;50.28
60228;BME280;46091;46.512;6.626;2023-04-09T10:55:56;97315.22;;;13.31;50.27
60228;BME280;46091;46.512;6.626;2023-04-09T10:57:59;97320.13;;;13.28;50.22